sensor_id;sensor_type;location;lat;lon;timestamp;P1;durP1;ratioP1;P2;durP2;ratioP2
19149;SDS011;9707;49.158;8.632;2023-07-20T00:02:16;2.97;;;1.20;;
19149;SDS011;9707;49.158;8.632;2023-07-20T00:04:41;2.50;;;1.60;;
19149;SDS011;9707;49.158;8.632;2023-07-20T00:07:06;3.17;;;2.15;;
19149;SDS011;9707;49.158;8.632;2023-07-20T00:09:34;3.45;;;1.88;;
19149;SDS011;9707;49.158;8.632;2023-07-20T00:11:59;2.33;;;1.67;;
19149;SDS011;9707;49.158;8.632;2023-07-20T00:14:25;1.88;;;1.13;;
19149;SDS011;9707;49.158;8.632;2023-07-20T00:16:50;3.20;;;1.50;;
19149;SDS011;9707;49.158;8.632;2023-07-20T00:19:27;2.53;;;1.60;;
19149;SDS011;9707;49.158;8.632;2023-07-20T00:21:53;3.92;;;1.45;;
19149;SDS011;9707;49.158;8.632;2023-07-20T00:24:19;2.03;;;1.30;;
19149;SDS011;9707;49.158;8.632;2023-07-20T00:26:45;3.33;;;1.55;;
19149;SDS011;9707;49.158;8.632;2023-07-20T00:29:10;1.55;;;1.42;;
19149;SDS011;9707;49.158;8.632;2023-07-20T00:31:35;2.40;;;1.67;;
19149;SDS011;9707;49.158;8.632;2023-07-20T00:34:02;2.78;;;1.38;;
19149;SDS011;9707;49.158;8.632;2023-07-20T00:36:28;2.78;;;1.50;;
19149;SDS011;9707;49.158;8.632;2023-07-20T00:38:54;3.30;;;1.80;;
19149;SDS011;9707;49.158;8.632;2023-07-20T00:41:19;3.33;;;1.80;;
19149;SDS011;9707;49.158;8.632;2023-07-20T00:43:45;3.17;;;1.50;;
19149;SDS011;9707;49.158;8.632;2023-07-20T00:46:10;2.97;;;1.60;;
19149;SDS011;9707;49.158;8.632;2023-07-20T00:48:36;1.95;;;1.20;;
19149;SDS011;9707;49.158;8.632;2023-07-20T00:51:02;4.40;;;1.40;;
19149;SDS011;9707;49.158;8.632;2023-07-20T00:53:28;2.40;;;1.23;;
19149;SDS011;9707;49.158;8.632;2023-07-20T00:55:53;5.18;;;1.75;;
19149;SDS011;9707;49.158;8.632;2023-07-20T00:58:19;2.30;;;1.42;;
19149;SDS011;9707;49.158;8.632;2023-07-20T01:00:45;3.22;;;2.08;;
19149;SDS011;9707;49.158;8.632;2023-07-20T01:03:11;3.97;;;1.95;;
19149;SDS011;9707;49.158;8.632;2023-07-20T01:05:47;5.07;;;1.85;;
19149;SDS011;9707;49.158;8.632;2023-07-20T01:08:24;3.17;;;1.55;;
19149;SDS011;9707;49.158;8.632;2023-07-20T01:11:06;4.10;;;1.52;;
19149;SDS011;9707;49.158;8.632;2023-07-20T01:13:37;1.88;;;1.35;;
19149;SDS011;9707;49.158;8.632;2023-07-20T01:16:03;3.22;;;1.35;;
19149;SDS011;9707;49.158;8.632;2023-07-20T01:18:31;3.92;;;2.00;;
19149;SDS011;9707;49.158;8.632;2023-07-20T01:20:59;4.60;;;1.80;;
19149;SDS011;9707;49.158;8.632;2023-07-20T01:31:45;3.40;;;1.60;;
19149;SDS011;9707;49.158;8.632;2023-07-20T01:34:15;2.28;;;1.45;;
19149;SDS011;9707;49.158;8.632;2023-07-20T01:36:43;2.80;;;1.52;;
19149;SDS011;9707;49.158;8.632;2023-07-20T01:39:09;1.55;;;1.20;;
19149;SDS011;9707;49.158;8.632;2023-07-20T01:41:35;2.13;;;1.05;;
19149;SDS011;9707;49.158;8.632;2023-07-20T01:44:03;2.80;;;1.40;;
19149;SDS011;9707;49.158;8.632;2023-07-20T01:46:28;2.97;;;1.75;;
19149;SDS011;9707;49.158;8.632;2023-07-20T01:48:54;3.25;;;1.70;;
19149;SDS011;9707;49.158;8.632;2023-07-20T01:51:19;4.60;;;1.38;;
19149;SDS011;9707;49.158;8.632;2023-07-20T01:53:45;4.60;;;1.40;;
19149;SDS011;9707;49.158;8.632;2023-07-20T01:56:10;2.15;;;1.38;;
19149;SDS011;9707;49.158;8.632;2023-07-20T01:58:37;3.80;;;1.83;;
19149;SDS011;9707;49.158;8.632;2023-07-20T02:01:02;2.95;;;1.73;;
19149;SDS011;9707;49.158;8.632;2023-07-20T02:03:28;2.83;;;1.42;;
19149;SDS011;9707;49.158;8.632;2023-07-20T02:05:53;2.38;;;1.27;;
19149;SDS011;9707;49.158;8.632;2023-07-20T02:08:18;2.83;;;1.55;;
19149;SDS011;9707;49.158;8.632;2023-07-20T02:10:47;2.92;;;1.63;;
19149;SDS011;9707;49.158;8.632;2023-07-20T02:13:13;2.50;;;1.48;;
19149;SDS011;9707;49.158;8.632;2023-07-20T02:15:38;1.77;;;1.67;;
19149;SDS011;9707;49.158;8.632;2023-07-20T02:18:04;2.35;;;1.58;;
19149;SDS011;9707;49.158;8.632;2023-07-20T02:20:29;4.30;;;1.80;;
19149;SDS011;9707;49.158;8.632;2023-07-20T02:22:54;3.67;;;1.55;;
19149;SDS011;9707;49.158;8.632;2023-07-20T02:25:20;2.55;;;1.50;;
19149;SDS011;9707;49.158;8.632;2023-07-20T02:27:46;2.58;;;1.27;;
19149;SDS011;9707;49.158;8.632;2023-07-20T02:30:11;1.80;;;1.55;;
19149;SDS011;9707;49.158;8.632;2023-07-20T02:32:36;2.90;;;1.42;;
19149;SDS011;9707;49.158;8.632;2023-07-20T02:35:02;2.63;;;1.65;;
19149;SDS011;9707;49.158;8.632;2023-07-20T02:37:28;2.10;;;1.58;;
19149;SDS011;9707;49.158;8.632;2023-07-20T02:39:54;2.58;;;1.33;;
19149;SDS011;9707;49.158;8.632;2023-07-20T02:42:19;3.45;;;1.38;;
19149;SDS011;9707;49.158;8.632;2023-07-20T02:44:44;3.05;;;1.60;;
19149;SDS011;9707;49.158;8.632;2023-07-20T02:47:09;2.63;;;1.25;;
19149;SDS011;9707;49.158;8.632;2023-07-20T02:49:35;1.77;;;1.30;;
19149;SDS011;9707;49.158;8.632;2023-07-20T02:52:00;5.65;;;2.03;;
19149;SDS011;9707;49.158;8.632;2023-07-20T02:54:25;2.13;;;1.60;;
19149;SDS011;9707;49.158;8.632;2023-07-20T02:56:51;4.80;;;1.50;;
19149;SDS011;9707;49.158;8.632;2023-07-20T02:59:16;1.95;;;1.50;;
19149;SDS011;9707;49.158;8.632;2023-07-20T03:01:41;3.03;;;1.30;;
19149;SDS011;9707;49.158;8.632;2023-07-20T03:04:10;2.55;;;1.38;;
19149;SDS011;9707;49.158;8.632;2023-07-20T03:06:35;2.30;;;1.42;;
19149;SDS011;9707;49.158;8.632;2023-07-20T03:09:01;4.05;;;1.70;;
19149;SDS011;9707;49.158;8.632;2023-07-20T03:11:27;1.70;;;1.30;;
19149;SDS011;9707;49.158;8.632;2023-07-20T03:13:52;3.42;;;1.40;;
19149;SDS011;9707;49.158;8.632;2023-07-20T03:16:18;3.00;;;1.40;;
19149;SDS011;9707;49.158;8.632;2023-07-20T03:18:44;1.63;;;1.30;;
19149;SDS011;9707;49.158;8.632;2023-07-20T03:21:10;2.42;;;1.17;;
19149;SDS011;9707;49.158;8.632;2023-07-20T03:23:36;3.13;;;1.50;;
19149;SDS011;9707;49.158;8.632;2023-07-20T03:26:02;2.80;;;1.98;;
19149;SDS011;9707;49.158;8.632;2023-07-20T03:28:27;2.08;;;1.30;;
19149;SDS011;9707;49.158;8.632;2023-07-20T03:30:53;2.25;;;1.48;;
19149;SDS011;9707;49.158;8.632;2023-07-20T03:33:21;2.35;;;1.60;;
19149;SDS011;9707;49.158;8.632;2023-07-20T03:35:53;2.92;;;1.50;;
19149;SDS011;9707;49.158;8.632;2023-07-20T03:38:19;3.40;;;1.40;;
19149;SDS011;9707;49.158;8.632;2023-07-20T03:40:49;4.45;;;1.48;;
19149;SDS011;9707;49.158;8.632;2023-07-20T03:43:15;3.42;;;1.35;;
19149;SDS011;9707;49.158;8.632;2023-07-20T03:45:41;1.67;;;1.42;;
19149;SDS011;9707;49.158;8.632;2023-07-20T03:48:06;2.25;;;1.60;;
19149;SDS011;9707;49.158;8.632;2023-07-20T03:50:31;3.35;;;1.50;;
19149;SDS011;9707;49.158;8.632;2023-07-20T03:52:57;1.48;;;1.35;;
19149;SDS011;9707;49.158;8.632;2023-07-20T03:55:22;3.10;;;1.50;;
19149;SDS011;9707;49.158;8.632;2023-07-20T03:57:48;3.92;;;1.38;;
19149;SDS011;9707;49.158;8.632;2023-07-20T04:00:15;2.22;;;1.40;;
19149;SDS011;9707;49.158;8.632;2023-07-20T04:02:41;4.30;;;1.30;;
19149;SDS011;9707;49.158;8.632;2023-07-20T04:05:06;2.13;;;1.20;;
19149;SDS011;9707;49.158;8.632;2023-07-20T04:07:32;3.22;;;1.40;;
19149;SDS011;9707;49.158;8.632;2023-07-20T04:09:57;5.18;;;1.40;;
19149;SDS011;9707;49.158;8.632;2023-07-20T04:12:22;2.05;;;1.20;;
19149;SDS011;9707;49.158;8.632;2023-07-20T04:14:48;2.33;;;1.20;;
19149;SDS011;9707;49.158;8.632;2023-07-20T04:17:13;3.08;;;1.50;;
19149;SDS011;9707;49.158;8.632;2023-07-20T04:19:38;1.73;;;1.42;;
19149;SDS011;9707;49.158;8.632;2023-07-20T04:22:04;1.80;;;1.48;;
19149;SDS011;9707;49.158;8.632;2023-07-20T04:24:29;3.92;;;1.50;;
19149;SDS011;9707;49.158;8.632;2023-07-20T04:26:54;3.22;;;1.50;;
19149;SDS011;9707;49.158;8.632;2023-07-20T04:29:20;1.95;;;1.40;;
19149;SDS011;9707;49.158;8.632;2023-07-20T04:31:45;3.92;;;2.20;;
19149;SDS011;9707;49.158;8.632;2023-07-20T04:34:10;2.00;;;1.60;;
19149;SDS011;9707;49.158;8.632;2023-07-20T04:36:35;2.80;;;1.80;;
19149;SDS011;9707;49.158;8.632;2023-07-20T04:39:01;5.78;;;2.05;;
19149;SDS011;9707;49.158;8.632;2023-07-20T04:41:26;3.88;;;2.05;;
19149;SDS011;9707;49.158;8.632;2023-07-20T04:43:52;3.97;;;1.83;;
19149;SDS011;9707;49.158;8.632;2023-07-20T04:46:17;5.75;;;1.90;;
19149;SDS011;9707;49.158;8.632;2023-07-20T04:48:43;4.45;;;2.83;;
19149;SDS011;9707;49.158;8.632;2023-07-20T04:51:09;3.13;;;2.13;;
19149;SDS011;9707;49.158;8.632;2023-07-20T04:53:35;3.42;;;1.75;;
19149;SDS011;9707;49.158;8.632;2023-07-20T04:56:00;4.10;;;1.95;;
19149;SDS011;9707;49.158;8.632;2023-07-20T04:58:25;4.70;;;1.80;;
19149;SDS011;9707;49.158;8.632;2023-07-20T05:00:51;3.00;;;1.92;;
19149;SDS011;9707;49.158;8.632;2023-07-20T05:03:16;2.72;;;1.70;;
19149;SDS011;9707;49.158;8.632;2023-07-20T05:05:42;4.03;;;2.30;;
19149;SDS011;9707;49.158;8.632;2023-07-20T05:08:11;5.70;;;1.92;;
19149;SDS011;9707;49.158;8.632;2023-07-20T05:10:36;4.68;;;2.13;;
19149;SDS011;9707;49.158;8.632;2023-07-20T05:13:01;3.78;;;2.17;;
19149;SDS011;9707;49.158;8.632;2023-07-20T05:15:26;3.95;;;2.17;;
19149;SDS011;9707;49.158;8.632;2023-07-20T05:17:52;4.38;;;1.83;;
19149;SDS011;9707;49.158;8.632;2023-07-20T05:20:17;4.05;;;1.75;;
19149;SDS011;9707;49.158;8.632;2023-07-20T05:22:43;4.03;;;2.00;;
19149;SDS011;9707;49.158;8.632;2023-07-20T05:25:09;3.22;;;1.75;;
19149;SDS011;9707;49.158;8.632;2023-07-20T05:27:38;4.97;;;2.00;;
19149;SDS011;9707;49.158;8.632;2023-07-20T05:30:04;2.17;;;1.52;;
19149;SDS011;9707;49.158;8.632;2023-07-20T05:32:30;3.08;;;1.88;;
19149;SDS011;9707;49.158;8.632;2023-07-20T05:34:55;3.05;;;1.70;;
19149;SDS011;9707;49.158;8.632;2023-07-20T05:37:21;3.90;;;1.98;;
19149;SDS011;9707;49.158;8.632;2023-07-20T05:39:46;5.13;;;1.75;;
19149;SDS011;9707;49.158;8.632;2023-07-20T05:42:12;5.35;;;2.03;;
19149;SDS011;9707;49.158;8.632;2023-07-20T05:44:37;8.48;;;2.40;;
19149;SDS011;9707;49.158;8.632;2023-07-20T05:47:02;3.78;;;2.00;;
19149;SDS011;9707;49.158;8.632;2023-07-20T05:49:28;9.15;;;2.03;;
19149;SDS011;9707;49.158;8.632;2023-07-20T05:51:54;4.05;;;2.10;;
19149;SDS011;9707;49.158;8.632;2023-07-20T05:54:20;3.35;;;2.00;;
19149;SDS011;9707;49.158;8.632;2023-07-20T05:56:46;3.78;;;2.30;;
19149;SDS011;9707;49.158;8.632;2023-07-20T05:59:11;6.93;;;2.33;;
19149;SDS011;9707;49.158;8.632;2023-07-20T06:01:37;2.80;;;2.10;;
19149;SDS011;9707;49.158;8.632;2023-07-20T06:04:02;4.28;;;2.35;;
19149;SDS011;9707;49.158;8.632;2023-07-20T06:06:28;4.20;;;1.60;;
19149;SDS011;9707;49.158;8.632;2023-07-20T06:08:53;5.75;;;1.95;;
19149;SDS011;9707;49.158;8.632;2023-07-20T06:11:19;3.53;;;1.90;;
19149;SDS011;9707;49.158;8.632;2023-07-20T06:13:45;3.50;;;1.90;;
19149;SDS011;9707;49.158;8.632;2023-07-20T06:16:10;3.42;;;1.90;;
19149;SDS011;9707;49.158;8.632;2023-07-20T06:18:35;2.53;;;1.80;;
19149;SDS011;9707;49.158;8.632;2023-07-20T06:21:01;4.40;;;2.00;;
19149;SDS011;9707;49.158;8.632;2023-07-20T06:23:26;5.35;;;1.90;;
19149;SDS011;9707;49.158;8.632;2023-07-20T06:25:52;3.83;;;1.83;;
19149;SDS011;9707;49.158;8.632;2023-07-20T06:28:17;3.15;;;1.90;;
19149;SDS011;9707;49.158;8.632;2023-07-20T06:30:43;6.50;;;1.85;;
19149;SDS011;9707;49.158;8.632;2023-07-20T06:33:08;3.25;;;1.70;;
19149;SDS011;9707;49.158;8.632;2023-07-20T06:35:34;5.57;;;2.20;;
19149;SDS011;9707;49.158;8.632;2023-07-20T06:38:00;7.75;;;3.50;;
19149;SDS011;9707;49.158;8.632;2023-07-20T06:40:29;3.83;;;2.35;;
19149;SDS011;9707;49.158;8.632;2023-07-20T06:42:55;5.78;;;1.83;;
19149;SDS011;9707;49.158;8.632;2023-07-20T06:45:20;5.05;;;2.13;;
19149;SDS011;9707;49.158;8.632;2023-07-20T06:47:46;4.55;;;2.35;;
19149;SDS011;9707;49.158;8.632;2023-07-20T06:50:11;6.30;;;2.50;;
19149;SDS011;9707;49.158;8.632;2023-07-20T06:52:37;4.03;;;2.75;;
19149;SDS011;9707;49.158;8.632;2023-07-20T06:55:02;3.85;;;1.73;;
19149;SDS011;9707;49.158;8.632;2023-07-20T06:57:28;5.22;;;1.80;;
19149;SDS011;9707;49.158;8.632;2023-07-20T06:59:53;4.60;;;2.00;;
19149;SDS011;9707;49.158;8.632;2023-07-20T07:02:19;5.18;;;1.90;;
19149;SDS011;9707;49.158;8.632;2023-07-20T07:04:44;3.35;;;2.00;;
19149;SDS011;9707;49.158;8.632;2023-07-20T07:07:11;6.13;;;2.10;;
19149;SDS011;9707;49.158;8.632;2023-07-20T07:09:37;3.28;;;1.90;;
19149;SDS011;9707;49.158;8.632;2023-07-20T07:12:02;4.47;;;2.00;;
19149;SDS011;9707;49.158;8.632;2023-07-20T07:14:28;5.75;;;2.10;;
19149;SDS011;9707;49.158;8.632;2023-07-20T07:16:53;3.88;;;1.92;;
19149;SDS011;9707;49.158;8.632;2023-07-20T07:19:18;2.30;;;1.70;;
19149;SDS011;9707;49.158;8.632;2023-07-20T07:21:44;3.67;;;2.30;;
19149;SDS011;9707;49.158;8.632;2023-07-20T07:24:09;4.10;;;2.03;;
19149;SDS011;9707;49.158;8.632;2023-07-20T07:26:35;2.92;;;1.80;;
19149;SDS011;9707;49.158;8.632;2023-07-20T07:29:02;6.70;;;1.98;;
19149;SDS011;9707;49.158;8.632;2023-07-20T07:31:28;3.03;;;1.90;;
19149;SDS011;9707;49.158;8.632;2023-07-20T07:33:55;4.25;;;1.65;;
19149;SDS011;9707;49.158;8.632;2023-07-20T07:36:20;4.40;;;1.70;;
19149;SDS011;9707;49.158;8.632;2023-07-20T07:38:46;3.85;;;1.80;;
19149;SDS011;9707;49.158;8.632;2023-07-20T07:41:11;6.22;;;1.77;;
19149;SDS011;9707;49.158;8.632;2023-07-20T07:43:36;8.25;;;2.15;;
19149;SDS011;9707;49.158;8.632;2023-07-20T07:46:03;4.55;;;1.60;;
19149;SDS011;9707;49.158;8.632;2023-07-20T07:48:28;7.07;;;2.20;;
19149;SDS011;9707;49.158;8.632;2023-07-20T07:50:54;5.22;;;1.55;;
19149;SDS011;9707;49.158;8.632;2023-07-20T07:53:19;3.72;;;2.10;;
19149;SDS011;9707;49.158;8.632;2023-07-20T07:55:47;4.50;;;1.33;;
19149;SDS011;9707;49.158;8.632;2023-07-20T07:58:13;2.72;;;1.40;;
19149;SDS011;9707;49.158;8.632;2023-07-20T08:00:38;2.35;;;1.40;;
19149;SDS011;9707;49.158;8.632;2023-07-20T08:03:05;5.78;;;1.55;;
19149;SDS011;9707;49.158;8.632;2023-07-20T08:05:32;3.33;;;1.50;;
19149;SDS011;9707;49.158;8.632;2023-07-20T08:07:58;3.47;;;1.35;;
19149;SDS011;9707;49.158;8.632;2023-07-20T08:10:23;2.20;;;1.30;;
19149;SDS011;9707;49.158;8.632;2023-07-20T08:12:48;2.78;;;1.27;;
19149;SDS011;9707;49.158;8.632;2023-07-20T08:15:13;2.53;;;1.20;;
19149;SDS011;9707;49.158;8.632;2023-07-20T08:17:40;4.45;;;1.80;;
19149;SDS011;9707;49.158;8.632;2023-07-20T08:20:06;3.13;;;1.75;;
19149;SDS011;9707;49.158;8.632;2023-07-20T08:22:32;3.88;;;1.70;;
19149;SDS011;9707;49.158;8.632;2023-07-20T08:24:57;2.10;;;1.50;;
19149;SDS011;9707;49.158;8.632;2023-07-20T08:27:22;3.63;;;1.45;;
19149;SDS011;9707;49.158;8.632;2023-07-20T08:29:47;4.38;;;1.67;;
19149;SDS011;9707;49.158;8.632;2023-07-20T08:32:13;4.15;;;1.40;;
19149;SDS011;9707;49.158;8.632;2023-07-20T08:34:39;3.25;;;1.50;;
19149;SDS011;9707;49.158;8.632;2023-07-20T08:37:04;3.50;;;1.63;;
19149;SDS011;9707;49.158;8.632;2023-07-20T08:39:30;4.90;;;1.80;;
19149;SDS011;9707;49.158;8.632;2023-07-20T08:41:55;3.47;;;1.85;;
19149;SDS011;9707;49.158;8.632;2023-07-20T08:44:24;3.60;;;1.40;;
19149;SDS011;9707;49.158;8.632;2023-07-20T08:46:50;4.07;;;1.30;;
19149;SDS011;9707;49.158;8.632;2023-07-20T08:49:17;2.55;;;1.50;;
19149;SDS011;9707;49.158;8.632;2023-07-20T08:51:43;2.45;;;1.27;;
19149;SDS011;9707;49.158;8.632;2023-07-20T08:54:11;3.50;;;1.40;;
19149;SDS011;9707;49.158;8.632;2023-07-20T08:56:38;2.97;;;1.65;;
19149;SDS011;9707;49.158;8.632;2023-07-20T08:59:06;4.03;;;1.52;;
19149;SDS011;9707;49.158;8.632;2023-07-20T09:01:33;3.20;;;1.35;;
19149;SDS011;9707;49.158;8.632;2023-07-20T09:04:01;5.15;;;1.77;;
19149;SDS011;9707;49.158;8.632;2023-07-20T09:06:26;2.35;;;1.65;;
19149;SDS011;9707;49.158;8.632;2023-07-20T09:08:52;6.38;;;1.63;;
19149;SDS011;9707;49.158;8.632;2023-07-20T09:11:17;3.17;;;1.65;;
19149;SDS011;9707;49.158;8.632;2023-07-20T09:13:42;3.22;;;1.58;;
19149;SDS011;9707;49.158;8.632;2023-07-20T09:16:13;2.90;;;1.35;;
19149;SDS011;9707;49.158;8.632;2023-07-20T09:18:39;4.05;;;1.70;;
19149;SDS011;9707;49.158;8.632;2023-07-20T09:21:05;3.03;;;1.60;;
19149;SDS011;9707;49.158;8.632;2023-07-20T09:23:32;3.95;;;1.75;;
19149;SDS011;9707;49.158;8.632;2023-07-20T09:26:10;2.95;;;1.60;;
19149;SDS011;9707;49.158;8.632;2023-07-20T09:31:21;4.22;;;1.33;;
19149;SDS011;9707;49.158;8.632;2023-07-20T09:33:47;3.65;;;1.83;;
19149;SDS011;9707;49.158;8.632;2023-07-20T09:36:13;4.10;;;1.60;;
19149;SDS011;9707;49.158;8.632;2023-07-20T09:38:42;2.40;;;1.50;;
19149;SDS011;9707;49.158;8.632;2023-07-20T09:41:12;3.97;;;1.52;;
19149;SDS011;9707;49.158;8.632;2023-07-20T09:43:38;3.17;;;1.40;;
19149;SDS011;9707;49.158;8.632;2023-07-20T09:46:04;4.30;;;1.80;;
19149;SDS011;9707;49.158;8.632;2023-07-20T09:48:30;2.15;;;1.35;;
19149;SDS011;9707;49.158;8.632;2023-07-20T09:50:55;2.38;;;1.25;;
19149;SDS011;9707;49.158;8.632;2023-07-20T09:53:21;3.55;;;1.30;;
19149;SDS011;9707;49.158;8.632;2023-07-20T09:55:49;2.45;;;1.17;;
19149;SDS011;9707;49.158;8.632;2023-07-20T09:58:15;2.97;;;1.23;;
19149;SDS011;9707;49.158;8.632;2023-07-20T10:00:41;1.63;;;1.00;;
19149;SDS011;9707;49.158;8.632;2023-07-20T10:03:18;1.98;;;1.15;;
19149;SDS011;9707;49.158;8.632;2023-07-20T10:05:57;3.55;;;1.30;;
19149;SDS011;9707;49.158;8.632;2023-07-20T10:08:29;4.53;;;1.08;;
19149;SDS011;9707;49.158;8.632;2023-07-20T10:10:55;1.67;;;1.20;;
19149;SDS011;9707;49.158;8.632;2023-07-20T10:13:26;2.53;;;1.10;;
19149;SDS011;9707;49.158;8.632;2023-07-20T10:16:03;2.05;;;0.90;;
19149;SDS011;9707;49.158;8.632;2023-07-20T10:18:45;1.80;;;1.25;;
19149;SDS011;9707;49.158;8.632;2023-07-20T10:21:14;2.55;;;1.10;;
19149;SDS011;9707;49.158;8.632;2023-07-20T10:23:42;3.17;;;1.50;;
19149;SDS011;9707;49.158;8.632;2023-07-20T10:26:08;2.10;;;1.10;;
19149;SDS011;9707;49.158;8.632;2023-07-20T10:28:34;2.63;;;1.00;;
19149;SDS011;9707;49.158;8.632;2023-07-20T10:31:01;2.30;;;1.23;;
19149;SDS011;9707;49.158;8.632;2023-07-20T10:33:27;3.45;;;1.00;;
19149;SDS011;9707;49.158;8.632;2023-07-20T10:36:02;3.60;;;1.20;;
19149;SDS011;9707;49.158;8.632;2023-07-20T10:38:40;2.17;;;1.13;;
19149;SDS011;9707;49.158;8.632;2023-07-20T10:41:21;1.75;;;1.10;;
19149;SDS011;9707;49.158;8.632;2023-07-20T10:43:55;2.25;;;1.00;;
19149;SDS011;9707;49.158;8.632;2023-07-20T10:46:33;2.03;;;1.20;;
19149;SDS011;9707;49.158;8.632;2023-07-20T10:48:59;2.50;;;1.10;;
19149;SDS011;9707;49.158;8.632;2023-07-20T10:51:29;1.45;;;1.00;;
19149;SDS011;9707;49.158;8.632;2023-07-20T10:53:55;3.03;;;1.02;;
19149;SDS011;9707;49.158;8.632;2023-07-20T10:56:24;1.33;;;1.02;;
19149;SDS011;9707;49.158;8.632;2023-07-20T10:58:56;1.92;;;0.85;;
19149;SDS011;9707;49.158;8.632;2023-07-20T11:01:27;1.27;;;0.75;;
19149;SDS011;9707;49.158;8.632;2023-07-20T11:03:59;2.20;;;1.50;;
19149;SDS011;9707;49.158;8.632;2023-07-20T11:09:03;2.97;;;1.40;;
19149;SDS011;9707;49.158;8.632;2023-07-20T11:11:33;2.22;;;1.10;;
19149;SDS011;9707;49.158;8.632;2023-07-20T11:14:00;2.17;;;0.80;;
19149;SDS011;9707;49.158;8.632;2023-07-20T11:18:59;2.00;;;1.10;;
19149;SDS011;9707;49.158;8.632;2023-07-20T11:21:24;2.70;;;1.08;;
19149;SDS011;9707;49.158;8.632;2023-07-20T11:23:52;1.85;;;1.10;;
19149;SDS011;9707;49.158;8.632;2023-07-20T11:26:18;2.67;;;1.27;;
19149;SDS011;9707;49.158;8.632;2023-07-20T11:28:48;4.93;;;1.00;;
19149;SDS011;9707;49.158;8.632;2023-07-20T11:31:14;2.25;;;0.90;;
19149;SDS011;9707;49.158;8.632;2023-07-20T11:33:41;2.55;;;1.02;;
19149;SDS011;9707;49.158;8.632;2023-07-20T11:36:08;1.83;;;0.98;;
19149;SDS011;9707;49.158;8.632;2023-07-20T11:38:33;2.05;;;1.00;;
19149;SDS011;9707;49.158;8.632;2023-07-20T11:40:59;3.15;;;1.15;;
19149;SDS011;9707;49.158;8.632;2023-07-20T11:43:24;2.33;;;1.00;;
19149;SDS011;9707;49.158;8.632;2023-07-20T11:45:51;3.00;;;1.40;;
19149;SDS011;9707;49.158;8.632;2023-07-20T11:48:16;2.15;;;1.10;;
19149;SDS011;9707;49.158;8.632;2023-07-20T11:50:42;2.58;;;0.93;;
19149;SDS011;9707;49.158;8.632;2023-07-20T11:53:07;2.28;;;0.90;;
19149;SDS011;9707;49.158;8.632;2023-07-20T11:55:33;1.95;;;1.17;;
19149;SDS011;9707;49.158;8.632;2023-07-20T11:58:05;2.60;;;1.05;;
19149;SDS011;9707;49.158;8.632;2023-07-20T12:00:32;3.35;;;1.25;;
19149;SDS011;9707;49.158;8.632;2023-07-20T12:02:58;2.90;;;1.00;;
19149;SDS011;9707;49.158;8.632;2023-07-20T12:05:23;3.40;;;1.40;;
19149;SDS011;9707;49.158;8.632;2023-07-20T12:07:49;2.50;;;0.90;;
19149;SDS011;9707;49.158;8.632;2023-07-20T12:10:15;3.05;;;1.08;;
19149;SDS011;9707;49.158;8.632;2023-07-20T12:12:41;1.67;;;1.10;;
19149;SDS011;9707;49.158;8.632;2023-07-20T12:15:12;3.97;;;1.25;;
19149;SDS011;9707;49.158;8.632;2023-07-20T12:17:41;2.03;;;1.08;;
19149;SDS011;9707;49.158;8.632;2023-07-20T12:20:10;2.67;;;0.90;;
19149;SDS011;9707;49.158;8.632;2023-07-20T12:22:39;1.70;;;1.27;;
19149;SDS011;9707;49.158;8.632;2023-07-20T12:25:08;2.92;;;1.10;;
19149;SDS011;9707;49.158;8.632;2023-07-20T12:27:37;4.30;;;1.25;;
19149;SDS011;9707;49.158;8.632;2023-07-20T12:30:03;1.75;;;1.10;;
19149;SDS011;9707;49.158;8.632;2023-07-20T12:32:31;1.60;;;1.08;;
19149;SDS011;9707;49.158;8.632;2023-07-20T12:34:57;1.90;;;1.15;;
19149;SDS011;9707;49.158;8.632;2023-07-20T12:37:25;1.75;;;1.23;;
19149;SDS011;9707;49.158;8.632;2023-07-20T12:39:51;1.80;;;1.00;;
19149;SDS011;9707;49.158;8.632;2023-07-20T12:42:16;2.03;;;1.38;;
19149;SDS011;9707;49.158;8.632;2023-07-20T12:44:42;3.22;;;1.20;;
19149;SDS011;9707;49.158;8.632;2023-07-20T12:47:07;1.90;;;1.02;;
19149;SDS011;9707;49.158;8.632;2023-07-20T12:49:32;3.60;;;1.30;;
19149;SDS011;9707;49.158;8.632;2023-07-20T12:51:58;3.28;;;1.33;;
19149;SDS011;9707;49.158;8.632;2023-07-20T12:54:23;2.13;;;1.33;;
19149;SDS011;9707;49.158;8.632;2023-07-20T12:56:48;1.95;;;1.10;;
19149;SDS011;9707;49.158;8.632;2023-07-20T12:59:14;3.38;;;1.30;;
19149;SDS011;9707;49.158;8.632;2023-07-20T13:01:39;2.17;;;1.10;;
19149;SDS011;9707;49.158;8.632;2023-07-20T13:04:06;2.35;;;1.45;;
19149;SDS011;9707;49.158;8.632;2023-07-20T13:06:34;3.30;;;1.08;;
19149;SDS011;9707;49.158;8.632;2023-07-20T13:08:59;2.35;;;1.15;;
19149;SDS011;9707;49.158;8.632;2023-07-20T13:11:25;2.13;;;1.20;;
19149;SDS011;9707;49.158;8.632;2023-07-20T13:13:50;2.35;;;1.20;;
19149;SDS011;9707;49.158;8.632;2023-07-20T13:16:15;1.48;;;1.00;;
19149;SDS011;9707;49.158;8.632;2023-07-20T13:18:41;2.20;;;1.00;;
19149;SDS011;9707;49.158;8.632;2023-07-20T13:21:07;2.72;;;1.10;;
19149;SDS011;9707;49.158;8.632;2023-07-20T13:23:35;1.75;;;1.00;;
19149;SDS011;9707;49.158;8.632;2023-07-20T13:26:04;1.70;;;0.95;;
19149;SDS011;9707;49.158;8.632;2023-07-20T13:28:30;2.85;;;1.20;;
19149;SDS011;9707;49.158;8.632;2023-07-20T13:30:55;1.60;;;1.02;;
19149;SDS011;9707;49.158;8.632;2023-07-20T13:33:20;2.78;;;1.30;;
19149;SDS011;9707;49.158;8.632;2023-07-20T13:35:46;1.98;;;1.05;;
19149;SDS011;9707;49.158;8.632;2023-07-20T13:38:13;1.50;;;1.08;;
19149;SDS011;9707;49.158;8.632;2023-07-20T13:40:38;2.30;;;0.93;;
19149;SDS011;9707;49.158;8.632;2023-07-20T13:43:04;1.45;;;0.98;;
19149;SDS011;9707;49.158;8.632;2023-07-20T13:45:32;3.42;;;1.35;;
19149;SDS011;9707;49.158;8.632;2023-07-20T13:47:57;1.48;;;1.30;;
19149;SDS011;9707;49.158;8.632;2023-07-20T13:50:22;3.72;;;1.33;;
19149;SDS011;9707;49.158;8.632;2023-07-20T13:52:48;1.27;;;1.10;;
19149;SDS011;9707;49.158;8.632;2023-07-20T13:55:13;1.40;;;0.90;;
19149;SDS011;9707;49.158;8.632;2023-07-20T13:57:39;3.80;;;1.17;;
19149;SDS011;9707;49.158;8.632;2023-07-20T14:00:05;2.45;;;1.10;;
19149;SDS011;9707;49.158;8.632;2023-07-20T14:02:31;1.50;;;1.00;;
19149;SDS011;9707;49.158;8.632;2023-07-20T14:04:56;2.25;;;1.00;;
19149;SDS011;9707;49.158;8.632;2023-07-20T14:07:22;2.70;;;1.05;;
19149;SDS011;9707;49.158;8.632;2023-07-20T14:09:47;1.27;;;1.00;;
19149;SDS011;9707;49.158;8.632;2023-07-20T14:12:13;1.73;;;0.95;;
19149;SDS011;9707;49.158;8.632;2023-07-20T14:14:39;3.40;;;0.98;;
19149;SDS011;9707;49.158;8.632;2023-07-20T14:17:06;4.07;;;1.33;;
19149;SDS011;9707;49.158;8.632;2023-07-20T14:19:31;1.83;;;0.90;;
19149;SDS011;9707;49.158;8.632;2023-07-20T14:21:56;2.30;;;1.20;;
19149;SDS011;9707;49.158;8.632;2023-07-20T14:24:23;2.30;;;1.08;;
19149;SDS011;9707;49.158;8.632;2023-07-20T14:26:49;1.23;;;0.85;;
19149;SDS011;9707;49.158;8.632;2023-07-20T14:29:14;2.15;;;1.20;;
19149;SDS011;9707;49.158;8.632;2023-07-20T14:31:39;3.13;;;1.05;;
19149;SDS011;9707;49.158;8.632;2023-07-20T14:34:05;1.55;;;1.00;;
19149;SDS011;9707;49.158;8.632;2023-07-20T14:36:30;1.70;;;1.02;;
19149;SDS011;9707;49.158;8.632;2023-07-20T14:38:55;1.15;;;0.90;;
19149;SDS011;9707;49.158;8.632;2023-07-20T14:41:20;3.38;;;0.98;;
19149;SDS011;9707;49.158;8.632;2023-07-20T14:43:46;1.40;;;0.90;;
19149;SDS011;9707;49.158;8.632;2023-07-20T14:46:11;2.13;;;1.08;;
19149;SDS011;9707;49.158;8.632;2023-07-20T14:48:37;1.88;;;0.82;;
19149;SDS011;9707;49.158;8.632;2023-07-20T14:51:02;1.95;;;0.98;;
19149;SDS011;9707;49.158;8.632;2023-07-20T14:53:30;2.92;;;1.00;;
19149;SDS011;9707;49.158;8.632;2023-07-20T14:56:00;1.45;;;1.00;;
19149;SDS011;9707;49.158;8.632;2023-07-20T14:58:26;1.20;;;0.88;;
19149;SDS011;9707;49.158;8.632;2023-07-20T15:00:51;3.53;;;1.20;;
19149;SDS011;9707;49.158;8.632;2023-07-20T15:03:17;2.30;;;0.80;;
19149;SDS011;9707;49.158;8.632;2023-07-20T15:05:42;1.73;;;0.88;;
19149;SDS011;9707;49.158;8.632;2023-07-20T15:08:07;2.10;;;0.80;;
19149;SDS011;9707;49.158;8.632;2023-07-20T15:10:33;3.50;;;0.95;;
19149;SDS011;9707;49.158;8.632;2023-07-20T15:12:59;1.52;;;0.65;;